Terminal Aerodrome Forecast
Issued by NWS Paducah, KY

Home | Current Version | Previous Version | Graphics & Text | Print | Product List | Glossary On
Versions: 1 2 3 4 5 6 7 8 9 10 11 12 13 14 15 16 17 18 19 20 21 22
675
FTUS43 KPAH 102339
TAFEVV
TAF
KEVV 102339Z 1100/1124 27008KT P6SM BKN045 OVC110
      TEMPO 1100/1102 -SN
     FM110600 34004KT P6SM OVC040
     FM111330 02006KT P6SM SKC=

USA.gov is the U.S. government's official web portal to all federal, state and local government web resources and services.